Time;durP1;ratioP1;P1;durP2;ratioP2;P2;SDS_P1;SDS_P2;PMS_P1;PMS_P2;Temp;Humidity;BMP_temperature;BMP_pressure;BME280_temperature;BME280_humidity;BME280_pressure;Samples;Min_cycle;Max_cycle;Signal;HPM_P1;HPM_P2
2022/03/04 00:02:21;;;;;;;20.37;13.30;;;3.20;99.90;;;;;;6113540;23;20873;-78
2022/03/04 00:04:48;;;;;;;20.20;14.33;;;3.20;99.90;;;;;;6112639;23;20215;-78
2022/03/04 00:07:15;;;;;;;23.87;15.13;;;3.30;99.90;;;;;;6113201;23;20530;-79
2022/03/04 00:09:41;;;;;;;21.73;14.87;;;3.30;99.90;;;;;;6113709;23;20331;-79
2022/03/04 00:12:09;;;;;;;21.53;14.77;;;3.30;99.90;;;;;;6141935;23;20167;-77
2022/03/04 00:14:36;;;;;;;22.23;14.80;;;3.20;99.90;;;;;;6175480;23;20186;-78
2022/03/04 00:17:04;;;;;;;23.07;15.03;;;3.30;99.90;;;;;;6176002;23;20182;-77
2022/03/04 00:19:31;;;;;;;21.67;14.40;;;3.30;99.90;;;;;;6175590;23;20175;-77
2022/03/04 00:21:58;;;;;;;23.27;15.73;;;3.30;99.90;;;;;;6176100;23;20262;-77
2022/03/04 00:24:25;;;;;;;22.83;15.27;;;3.20;99.90;;;;;;6175896;23;20175;-77
2022/03/04 00:26:52;;;;;;;23.40;15.47;;;3.20;99.90;;;;;;6175003;23;20205;-77
2022/03/04 00:29:18;;;;;;;22.97;15.40;;;3.20;99.90;;;;;;6174883;23;20178;-78
2022/03/04 00:31:46;;;;;;;26.63;16.43;;;3.20;99.90;;;;;;6174893;23;20175;-77
2022/03/04 00:34:14;;;;;;;21.53;14.73;;;3.20;99.90;;;;;;6175587;23;20181;-78
2022/03/04 00:36:41;;;;;;;24.33;15.93;;;3.20;99.90;;;;;;6175524;23;20195;-79
2022/03/04 00:39:10;;;;;;;25.30;17.20;;;3.20;99.90;;;;;;6174811;23;20181;-78
2022/03/04 00:41:37;;;;;;;24.00;16.03;;;3.20;99.90;;;;;;6173927;23;20186;-78
2022/03/04 00:44:04;;;;;;;24.27;15.43;;;3.20;99.90;;;;;;6175355;23;20171;-77
2022/03/04 00:46:31;;;;;;;26.53;15.97;;;3.20;99.90;;;;;;6174115;23;20198;-78
2022/03/04 00:48:57;;;;;;;26.87;16.53;;;3.20;99.90;;;;;;6175153;23;20186;-78
2022/03/04 00:51:26;;;;;;;23.50;15.87;;;3.20;99.90;;;;;;6175491;23;20208;-79
2022/03/04 00:53:52;;;;;;;28.53;16.77;;;3.20;99.90;;;;;;6174932;23;20206;-79
2022/03/04 00:56:19;;;;;;;25.90;17.17;;;3.20;99.90;;;;;;6174759;23;20171;-79
2022/03/04 00:58:46;;;;;;;23.77;16.27;;;3.20;99.90;;;;;;6175814;23;20175;-78
2022/03/04 01:01:13;;;;;;;24.30;16.00;;;3.20;99.90;;;;;;6174906;23;20166;-80
2022/03/04 01:03:39;;;;;;;24.47;15.67;;;3.20;99.90;;;;;;6175086;23;20174;-79
2022/03/04 01:06:08;;;;;;;24.50;16.13;;;3.20;99.90;;;;;;6174611;23;20202;-79
2022/03/04 01:08:36;;;;;;;24.37;15.23;;;3.10;99.90;;;;;;6173476;23;20202;-79
2022/03/04 01:11:03;;;;;;;26.57;16.67;;;3.10;99.90;;;;;;6175767;23;20182;-79
2022/03/04 01:13:30;;;;;;;26.20;17.17;;;3.10;99.90;;;;;;6174438;23;20654;-79
2022/03/04 01:15:57;;;;;;;26.27;16.63;;;3.10;99.90;;;;;;6174053;23;20178;-79
2022/03/04 01:18:24;;;;;;;28.10;17.63;;;3.00;99.90;;;;;;6174567;23;20553;-78
2022/03/04 01:20:51;;;;;;;27.37;17.63;;;3.00;99.90;;;;;;6176134;23;20178;-80
2022/03/04 01:23:17;;;;;;;29.80;18.10;;;3.10;99.90;;;;;;6173647;23;20186;-76
2022/03/04 01:25:46;;;;;;;24.97;17.07;;;3.10;99.90;;;;;;6175829;23;20213;-78
2022/03/04 01:28:12;;;;;;;25.80;16.47;;;3.10;99.90;;;;;;6174592;23;20245;-78
2022/03/04 01:30:40;;;;;;;23.83;15.87;;;3.10;99.90;;;;;;6175443;23;20444;-78
2022/03/04 01:33:07;;;;;;;27.57;17.80;;;3.10;99.90;;;;;;6176093;23;20185;-78
2022/03/04 01:35:34;;;;;;;24.00;16.07;;;3.10;99.90;;;;;;6175757;23;20176;-77
2022/03/04 01:38:00;;;;;;;28.80;18.43;;;3.10;99.90;;;;;;6176090;23;20174;-79
2022/03/04 01:40:27;;;;;;;28.03;16.07;;;3.10;99.90;;;;;;6174979;23;20179;-77
2022/03/04 01:42:55;;;;;;;31.23;18.43;;;3.00;99.90;;;;;;6175134;23;20175;-78
2022/03/04 01:45:22;;;;;;;28.20;16.77;;;3.00;99.90;;;;;;6174455;23;20175;-79
2022/03/04 01:47:49;;;;;;;28.13;17.40;;;3.00;99.90;;;;;;6175673;23;20178;-78
2022/03/04 01:50:16;;;;;;;28.17;17.13;;;3.00;99.90;;;;;;6174119;23;20209;-78
2022/03/04 01:52:43;;;;;;;24.63;15.67;;;2.90;99.90;;;;;;6175185;23;20231;-78
2022/03/04 01:55:11;;;;;;;29.43;17.13;;;2.90;99.90;;;;;;6176490;23;20182;-79
2022/03/04 01:57:38;;;;;;;30.27;18.33;;;2.90;99.90;;;;;;6176050;23;20171;-77
2022/03/04 02:00:10;;;;;;;28.93;17.53;;;2.90;99.90;;;;;;6177437;23;20742;-79
2022/03/04 02:02:36;;;;;;;25.73;16.07;;;2.90;99.90;;;;;;6179219;23;20167;-78
2022/03/04 02:05:04;;;;;;;26.20;16.63;;;2.90;99.90;;;;;;6177646;23;20177;-79
2022/03/04 02:07:31;;;;;;;27.73;16.97;;;2.80;99.90;;;;;;6185727;23;20208;-78
2022/03/04 02:09:58;;;;;;;28.43;17.17;;;2.80;99.90;;;;;;6207058;23;20264;-79
2022/03/04 02:12:24;;;;;;;25.23;15.17;;;2.80;99.90;;;;;;6205851;23;20173;-80
2022/03/04 02:14:51;;;;;;;27.17;16.70;;;2.80;99.90;;;;;;6207539;23;20178;-79
2022/03/04 02:17:19;;;;;;;24.87;15.03;;;2.80;99.90;;;;;;6205027;23;20174;-79
2022/03/04 02:19:51;;;;;;;28.33;17.50;;;2.80;99.90;;;;;;6207306;23;20575;-79
2022/03/04 02:22:19;;;;;;;25.00;16.33;;;2.80;99.90;;;;;;6208240;23;20212;-79
2022/03/04 02:24:46;;;;;;;24.60;15.60;;;2.70;99.90;;;;;;6206625;23;20567;-78
2022/03/04 02:27:13;;;;;;;24.53;15.70;;;2.70;99.90;;;;;;6206163;23;20190;-79
2022/03/04 02:29:40;;;;;;;25.47;15.70;;;2.70;99.90;;;;;;6206512;23;20933;-78
2022/03/04 02:32:07;;;;;;;24.53;15.53;;;2.70;99.90;;;;;;6205937;23;20173;-79
2022/03/04 02:34:34;;;;;;;26.30;15.97;;;2.60;99.90;;;;;;6206859;23;20174;-79
2022/03/04 02:37:01;;;;;;;26.30;17.10;;;2.60;99.90;;;;;;6206972;23;20436;-79
2022/03/04 02:39:29;;;;;;;26.00;16.67;;;2.60;99.90;;;;;;6206459;23;20178;-79
2022/03/04 02:41:56;;;;;;;26.47;16.03;;;2.60;99.90;;;;;;6207906;23;20181;-79
2022/03/04 02:44:22;;;;;;;28.87;16.03;;;2.60;99.90;;;;;;6206169;23;20254;-79
2022/03/04 02:46:49;;;;;;;27.47;16.87;;;2.60;99.90;;;;;;6206291;23;20198;-78
2022/03/04 02:49:16;;;;;;;25.13;15.33;;;2.50;99.90;;;;;;6209748;23;20166;-79
2022/03/04 02:51:43;;;;;;;27.73;16.23;;;2.50;99.90;;;;;;6209781;23;20190;-78
2022/03/04 02:54:09;;;;;;;25.57;16.37;;;2.50;99.90;;;;;;6206423;23;20193;-77
2022/03/04 02:56:37;;;;;;;23.87;14.53;;;2.50;99.90;;;;;;6206741;23;20166;-78
2022/03/04 02:59:04;;;;;;;24.10;15.67;;;2.50;99.90;;;;;;6207552;23;20185;-78
2022/03/04 03:01:31;;;;;;;26.00;15.57;;;2.40;99.90;;;;;;6206289;23;20178;-76
2022/03/04 03:03:58;;;;;;;26.40;16.60;;;2.40;99.90;;;;;;6207517;23;20189;-77
2022/03/04 03:06:25;;;;;;;25.70;16.30;;;2.40;99.90;;;;;;6206263;23;20194;-78
2022/03/04 03:08:52;;;;;;;24.07;16.33;;;2.40;99.90;;;;;;6206890;23;20202;-78
2022/03/04 03:11:19;;;;;;;24.83;15.27;;;2.30;99.90;;;;;;6207110;23;20437;-78
2022/03/04 03:13:47;;;;;;;28.60;15.70;;;2.30;99.90;;;;;;6206375;23;20181;-78
2022/03/04 03:16:14;;;;;;;26.17;15.30;;;2.30;99.90;;;;;;6206243;23;20261;-78
2022/03/04 03:18:40;;;;;;;23.27;15.20;;;2.30;99.90;;;;;;6207767;23;20174;-78
2022/03/04 03:21:07;;;;;;;23.53;14.63;;;2.20;99.90;;;;;;6206332;23;20174;-77
2022/03/04 03:23:34;;;;;;;24.50;15.33;;;2.20;99.90;;;;;;6206628;23;20204;-77
2022/03/04 03:26:01;;;;;;;24.10;15.93;;;2.20;99.90;;;;;;6206950;23;20178;-77
2022/03/04 03:28:28;;;;;;;22.50;15.23;;;2.20;99.90;;;;;;6205033;23;20185;-77
2022/03/04 03:30:56;;;;;;;23.67;14.57;;;2.20;99.90;;;;;;6206391;23;20170;-76
2022/03/04 03:33:23;;;;;;;24.37;14.77;;;2.10;99.90;;;;;;6205911;23;20238;-78
2022/03/04 03:35:54;;;;;;;26.90;15.50;;;2.10;99.90;;;;;;6205877;23;20185;-76
2022/03/04 03:38:21;;;;;;;26.10;15.63;;;2.10;99.90;;;;;;6205836;23;20166;-79
2022/03/04 03:40:48;;;;;;;28.50;15.97;;;2.10;99.90;;;;;;6206082;23;20181;-78
2022/03/04 03:43:15;;;;;;;25.17;15.43;;;2.10;99.90;;;;;;6204576;23;20170;-79
2022/03/04 03:45:42;;;;;;;25.43;14.30;;;2.00;99.90;;;;;;6206996;23;20178;-78
2022/03/04 03:48:10;;;;;;;26.07;15.43;;;2.00;99.90;;;;;;6205625;23;20924;-78
2022/03/04 03:50:38;;;;;;;23.40;15.33;;;2.00;99.90;;;;;;6206098;23;20181;-78
2022/03/04 03:53:05;;;;;;;24.47;15.17;;;1.90;99.90;;;;;;6205724;23;20241;-79
2022/03/04 03:55:32;;;;;;;24.30;14.67;;;1.90;99.90;;;;;;6205329;23;20166;-78
2022/03/04 03:57:59;;;;;;;24.90;15.43;;;1.90;99.90;;;;;;6206448;23;20177;-79
2022/03/04 04:00:26;;;;;;;25.80;15.83;;;1.90;99.90;;;;;;6205816;23;20181;-78
2022/03/04 04:02:53;;;;;;;25.80;15.83;;;1.90;99.90;;;;;;6205815;23;20174;-77
2022/03/04 04:05:21;;;;;;;22.50;15.47;;;1.90;99.90;;;;;;6205679;23;20233;-76
2022/03/04 04:07:48;;;;;;;26.20;16.30;;;1.90;99.90;;;;;;6205905;23;20206;-78
2022/03/04 04:10:15;;;;;;;28.23;16.10;;;1.90;99.90;;;;;;6204698;23;20248;-78
2022/03/04 04:12:42;;;;;;;24.97;15.10;;;1.90;99.90;;;;;;6205780;23;20180;-78
2022/03/04 04:15:10;;;;;;;26.03;15.83;;;1.90;99.90;;;;;;6206927;23;20180;-77
2022/03/04 04:17:37;;;;;;;22.60;14.43;;;1.90;99.90;;;;;;6205113;23;20174;-77
2022/03/04 04:20:05;;;;;;;24.27;14.13;;;1.90;99.90;;;;;;6205554;23;20174;-77
2022/03/04 04:22:33;;;;;;;27.63;14.60;;;2.00;99.90;;;;;;6204513;23;20198;-78
2022/03/04 04:25:00;;;;;;;22.83;14.20;;;2.00;99.90;;;;;;6205986;23;20178;-76
2022/03/04 04:27:26;;;;;;;22.40;14.30;;;2.00;99.90;;;;;;6205758;23;20208;-77
2022/03/04 04:29:53;;;;;;;24.23;14.63;;;1.90;99.90;;;;;;6205754;23;20177;-78
2022/03/04 04:32:20;;;;;;;23.50;14.47;;;1.90;99.90;;;;;;6203935;23;20170;-78
2022/03/04 04:34:47;;;;;;;21.90;13.53;;;1.90;99.90;;;;;;6206040;23;20174;-79
2022/03/04 04:37:13;;;;;;;22.73;14.20;;;1.80;99.90;;;;;;6205114;23;20848;-77
2022/03/04 04:39:41;;;;;;;24.20;14.80;;;1.80;99.90;;;;;;6205454;23;20178;-78
2022/03/04 04:42:09;;;;;;;24.03;15.37;;;1.80;99.90;;;;;;6206275;23;20182;-79
2022/03/04 04:44:35;;;;;;;23.13;13.83;;;1.80;99.90;;;;;;6204647;23;20207;-77
2022/03/04 04:47:02;;;;;;;23.77;14.10;;;1.80;99.90;;;;;;6204798;23;20205;-77
2022/03/04 04:49:29;;;;;;;23.63;15.00;;;1.80;99.90;;;;;;6205825;23;20177;-76
2022/03/04 04:51:56;;;;;;;23.63;14.07;;;1.80;99.90;;;;;;6205936;23;20531;-77
2022/03/04 04:54:23;;;;;;;22.30;13.93;;;1.80;99.90;;;;;;6204972;23;20641;-77
2022/03/04 04:56:51;;;;;;;21.57;13.60;;;1.80;99.90;;;;;;6205060;23;20170;-77
2022/03/04 04:59:17;;;;;;;22.20;13.10;;;1.80;99.90;;;;;;6204185;23;20638;-77
2022/03/04 05:01:44;;;;;;;26.37;15.13;;;1.70;99.90;;;;;;6205899;23;20182;-78
2022/03/04 05:04:11;;;;;;;23.40;13.40;;;1.80;99.90;;;;;;6206196;23;20174;-77
2022/03/04 05:06:38;;;;;;;22.67;13.27;;;1.70;99.90;;;;;;6205051;23;20201;-78
2022/03/04 05:09:05;;;;;;;23.73;13.00;;;1.80;99.90;;;;;;6205522;23;20209;-77
2022/03/04 05:11:31;;;;;;;24.70;14.00;;;1.70;99.90;;;;;;6205400;23;20556;-78
2022/03/04 05:13:59;;;;;;;20.47;13.07;;;1.80;99.90;;;;;;6205047;23;20182;-78
2022/03/04 05:16:26;;;;;;;21.20;12.93;;;1.70;99.90;;;;;;6205324;23;20170;-78
2022/03/04 05:18:53;;;;;;;21.40;13.90;;;1.70;99.90;;;;;;6205975;23;20181;-77
2022/03/04 05:21:20;;;;;;;20.60;12.80;;;1.70;99.90;;;;;;6205450;23;20174;-76
2022/03/04 05:24:02;;;;;;;21.27;13.87;;;1.60;99.90;;;;;;6206044;23;20825;-77
2022/03/04 05:26:31;;;;;;;23.40;14.90;;;1.60;99.90;;;;;;6206097;23;20169;-77
2022/03/04 05:29:01;;;;;;;24.50;16.83;;;1.60;99.90;;;;;;6205369;23;20201;-77
2022/03/04 05:31:28;;;;;;;23.27;14.33;;;1.50;99.90;;;;;;6204974;23;20178;-79
2022/03/04 05:33:56;;;;;;;22.83;13.60;;;1.60;99.90;;;;;;6205306;23;20174;-78
2022/03/04 05:36:23;;;;;;;24.03;13.67;;;1.50;99.90;;;;;;6203409;23;20181;-77
2022/03/04 05:38:50;;;;;;;22.63;14.27;;;1.50;99.90;;;;;;6204690;23;20170;-78
2022/03/04 05:41:18;;;;;;;24.33;14.77;;;1.50;99.90;;;;;;6204847;23;20178;-77
2022/03/04 05:43:46;;;;;;;21.37;12.93;;;1.50;99.90;;;;;;6205043;23;20174;-77
2022/03/04 05:46:15;;;;;;;23.83;14.00;;;1.50;99.90;;;;;;6204853;23;20182;-78
2022/03/04 05:48:42;;;;;;;21.00;14.00;;;1.40;99.90;;;;;;6205186;23;20205;-77
2022/03/04 05:51:10;;;;;;;21.43;12.97;;;1.40;99.90;;;;;;6205250;23;20699;-77
2022/03/04 05:53:37;;;;;;;20.20;13.93;;;1.30;99.90;;;;;;6204317;23;20193;-77
2022/03/04 05:56:05;;;;;;;21.33;14.40;;;1.30;99.90;;;;;;6204550;23;20346;-77
2022/03/04 05:58:32;;;;;;;21.33;13.60;;;1.30;99.90;;;;;;6204814;23;20185;-77
2022/03/04 06:00:59;;;;;;;24.30;14.13;;;1.30;99.90;;;;;;6205674;23;20178;-77
2022/03/04 06:03:28;;;;;;;25.10;14.63;;;1.30;99.90;;;;;;6204600;23;20207;-77
2022/03/04 06:05:55;;;;;;;21.60;13.90;;;1.30;99.90;;;;;;6205787;23;20181;-76
2022/03/04 06:08:21;;;;;;;24.87;14.10;;;1.30;99.90;;;;;;6205466;23;20209;-78
2022/03/04 06:10:48;;;;;;;26.37;14.87;;;1.30;99.90;;;;;;6204639;23;20185;-77
2022/03/04 06:13:15;;;;;;;23.73;14.10;;;1.30;99.90;;;;;;6204766;23;20170;-77
2022/03/04 06:15:42;;;;;;;23.63;14.33;;;1.40;99.90;;;;;;6205322;23;20241;-78
2022/03/04 06:18:09;;;;;;;22.87;14.23;;;1.40;99.90;;;;;;6204853;23;20570;-77
2022/03/04 06:20:37;;;;;;;22.97;13.67;;;1.30;99.90;;;;;;6204767;23;20205;-77
2022/03/04 06:23:04;;;;;;;23.60;13.57;;;1.30;99.90;;;;;;6205379;23;20177;-78
2022/03/04 06:25:30;;;;;;;21.80;14.37;;;1.30;99.90;;;;;;6204357;23;20680;-77
2022/03/04 06:28:00;;;;;;;23.47;14.67;;;1.30;99.90;;;;;;6204946;23;20712;-77
2022/03/04 06:30:29;;;;;;;23.43;14.53;;;1.30;99.90;;;;;;6204558;23;20249;-77
2022/03/04 06:33:30;;;;;;;23.23;14.03;;;1.30;99.90;;;;;;6204854;23;20174;-76
2022/03/04 06:35:45;;;;;;;23.37;13.77;;;1.30;99.90;;;;;;6205146;23;20217;-78
2022/03/04 06:38:13;;;;;;;22.93;14.57;;;1.30;99.90;;;;;;6204845;23;20217;-79
2022/03/04 06:40:41;;;;;;;23.97;14.47;;;1.30;99.90;;;;;;6205014;23;20570;-78
2022/03/04 06:43:08;;;;;;;24.27;14.57;;;1.30;99.90;;;;;;6206647;23;20185;-78
2022/03/04 06:45:35;;;;;;;23.40;13.53;;;1.40;99.90;;;;;;6205184;23;20170;-78
2022/03/04 06:48:02;;;;;;;23.10;14.73;;;1.30;99.90;;;;;;6206715;23;20202;-78
2022/03/04 06:50:29;;;;;;;23.23;13.80;;;1.40;99.90;;;;;;6205897;23;20261;-80
2022/03/04 06:52:57;;;;;;;21.90;14.80;;;1.40;99.90;;;;;;6205641;23;20222;-79
2022/03/04 06:55:25;;;;;;;22.93;13.33;;;1.40;99.90;;;;;;6206077;23;20170;-78
2022/03/04 06:57:54;;;;;;;20.87;13.47;;;1.30;99.90;;;;;;6207146;23;20224;-79
2022/03/04 07:00:21;;;;;;;22.53;14.17;;;1.30;99.90;;;;;;6205406;23;20170;-77
2022/03/04 07:02:48;;;;;;;19.73;13.07;;;1.40;99.90;;;;;;6207209;23;20170;-78
2022/03/04 07:05:15;;;;;;;23.27;13.30;;;1.40;99.90;;;;;;6207041;23;20178;-79
2022/03/04 07:07:42;;;;;;;23.60;14.07;;;1.40;99.90;;;;;;6205180;23;20213;-78
2022/03/04 07:10:11;;;;;;;22.53;13.90;;;1.40;99.90;;;;;;6206989;23;20174;-78
2022/03/04 07:12:38;;;;;;;26.03;13.87;;;1.40;99.90;;;;;;6206086;23;20435;-77
2022/03/04 07:15:07;;;;;;;23.53;14.57;;;1.40;99.90;;;;;;6206154;23;20178;-77
2022/03/04 07:17:34;;;;;;;24.07;14.63;;;1.40;99.90;;;;;;6206543;23;20576;-78
2022/03/04 07:20:00;;;;;;;23.27;14.50;;;1.40;99.90;;;;;;6205947;23;20221;-80
2022/03/04 07:22:27;;;;;;;21.97;14.33;;;1.50;99.90;;;;;;6205799;23;20181;-78
2022/03/04 07:24:54;;;;;;;23.83;15.03;;;1.50;99.90;;;;;;6206525;23;20174;-78
2022/03/04 07:27:22;;;;;;;23.17;13.73;;;1.50;99.90;;;;;;6205298;23;20287;-78
2022/03/04 07:29:49;;;;;;;22.47;14.83;;;1.50;99.90;;;;;;6205790;23;20185;-76
2022/03/04 07:32:16;;;;;;;21.87;14.03;;;1.50;99.90;;;;;;6206460;23;20174;-77
2022/03/04 07:34:43;;;;;;;26.57;14.83;;;1.50;99.90;;;;;;6204923;23;20189;-77
2022/03/04 07:37:09;;;;;;;20.17;12.13;;;1.50;99.90;;;;;;6206021;23;20178;-77
2022/03/04 07:39:36;;;;;;;24.97;15.00;;;1.50;99.90;;;;;;6205343;23;20196;-77
2022/03/04 07:42:04;;;;;;;23.73;15.03;;;1.60;99.90;;;;;;6205621;23;20185;-78
2022/03/04 07:44:32;;;;;;;22.23;13.97;;;1.60;99.90;;;;;;6206389;23;20197;-79
2022/03/04 07:46:59;;;;;;;28.10;15.53;;;1.60;99.90;;;;;;6207022;23;20174;-78
2022/03/04 07:49:26;;;;;;;25.00;15.17;;;1.60;99.90;;;;;;6205068;23;20528;-79
2022/03/04 07:51:53;;;;;;;23.97;15.00;;;1.70;99.90;;;;;;6205711;23;20972;-77
2022/03/04 07:54:20;;;;;;;23.83;15.00;;;1.70;99.90;;;;;;6206097;23;20181;-77
2022/03/04 07:56:47;;;;;;;26.27;15.43;;;1.80;99.90;;;;;;6204982;23;20197;-78
2022/03/04 07:59:13;;;;;;;30.30;16.23;;;1.80;99.90;;;;;;6205567;23;20174;-75
2022/03/04 08:01:42;;;;;;;22.77;14.23;;;1.80;99.90;;;;;;6206097;23;20178;-77
2022/03/04 08:04:11;;;;;;;28.90;16.83;;;1.90;99.90;;;;;;6205579;23;20181;-78
2022/03/04 08:06:38;;;;;;;28.30;16.57;;;1.90;99.90;;;;;;6205884;23;20277;-78
2022/03/04 08:09:05;;;;;;;26.87;17.37;;;2.00;99.90;;;;;;6204842;23;20206;-79
2022/03/04 08:11:44;;;;;;;25.90;15.70;;;2.00;99.90;;;;;;6150637;23;20344;-78
2022/03/04 08:14:11;;;;;;;27.23;15.70;;;2.20;99.90;;;;;;6205667;23;20177;-78
2022/03/04 08:16:38;;;;;;;25.13;16.00;;;2.10;99.90;;;;;;6205044;23;20170;-78
2022/03/04 08:19:06;;;;;;;26.60;17.57;;;2.20;99.90;;;;;;6205638;23;20605;-78
2022/03/04 08:21:33;;;;;;;23.83;16.03;;;2.30;99.90;;;;;;6204610;23;20859;-78
2022/03/04 08:24:00;;;;;;;27.73;16.57;;;2.30;99.90;;;;;;6205208;23;20838;-77
2022/03/04 08:26:26;;;;;;;23.53;14.77;;;2.30;99.90;;;;;;6205311;23;20174;-77
2022/03/04 08:28:53;;;;;;;28.67;16.73;;;2.40;99.90;;;;;;6199386;23;20474;-77
2022/03/04 08:31:20;;;;;;;27.10;16.20;;;2.50;99.90;;;;;;6204686;23;20162;-77
2022/03/04 08:33:47;;;;;;;25.17;16.40;;;2.50;99.90;;;;;;6205982;23;20181;-79
2022/03/04 08:36:15;;;;;;;25.37;14.90;;;2.70;99.90;;;;;;6205500;23;20657;-78
2022/03/04 08:38:42;;;;;;;20.97;14.90;;;2.70;99.90;;;;;;6205926;23;20174;-77
2022/03/04 08:41:09;;;;;;;24.30;15.57;;;2.70;99.90;;;;;;6205336;23;20441;-79
2022/03/04 08:43:36;;;;;;;23.87;15.67;;;2.80;99.90;;;;;;6205559;23;20166;-79
2022/03/04 08:46:03;;;;;;;29.70;17.10;;;2.80;99.90;;;;;;6204472;23;20178;-78
2022/03/04 08:48:30;;;;;;;25.90;16.77;;;2.90;99.90;;;;;;6204370;23;20198;-78
2022/03/04 08:50:57;;;;;;;22.70;15.57;;;3.00;99.90;;;;;;6205389;23;20170;-78
2022/03/04 08:53:27;;;;;;;22.73;15.40;;;3.10;99.90;;;;;;6205197;23;20198;-77
2022/03/04 08:55:55;;;;;;;27.73;16.97;;;3.10;99.90;;;;;;6205369;23;20178;-78
2022/03/04 08:58:21;;;;;;;26.03;17.23;;;3.20;99.90;;;;;;6204337;23;20166;-77
2022/03/04 09:00:48;;;;;;;27.80;16.70;;;3.30;99.90;;;;;;6205925;23;20486;-78
2022/03/04 09:03:15;;;;;;;24.73;15.80;;;3.40;99.90;;;;;;6205039;23;20564;-77
2022/03/04 09:05:42;;;;;;;26.63;17.63;;;3.40;99.90;;;;;;6204174;23;20174;-77
2022/03/04 09:08:09;;;;;;;24.93;16.03;;;3.50;99.90;;;;;;6205302;23;20206;-78
2022/03/04 09:10:37;;;;;;;22.93;14.90;;;3.60;99.90;;;;;;6204908;23;20180;-77
2022/03/04 09:13:05;;;;;;;23.97;15.70;;;3.70;99.90;;;;;;6204336;23;20175;-77
2022/03/04 09:15:32;;;;;;;26.13;16.33;;;3.80;99.90;;;;;;6205874;23;20232;-75
2022/03/04 09:17:59;;;;;;;21.77;15.17;;;3.90;99.90;;;;;;6205188;23;20170;-77
2022/03/04 09:20:26;;;;;;;22.50;15.23;;;4.00;99.90;;;;;;6204623;23;20285;-77
2022/03/04 09:22:53;;;;;;;25.87;15.80;;;4.00;99.90;;;;;;6206781;23;20174;-78
2022/03/04 09:25:20;;;;;;;24.97;16.13;;;4.10;99.90;;;;;;6204880;23;20188;-77
2022/03/04 09:27:50;;;;;;;22.43;14.67;;;4.20;99.90;;;;;;6204411;23;20178;-78
2022/03/04 09:30:17;;;;;;;28.57;16.97;;;4.30;99.90;;;;;;6205366;23;20181;-78
2022/03/04 09:32:43;;;;;;;23.07;15.30;;;4.40;99.90;;;;;;6205063;23;20722;-77
2022/03/04 09:35:10;;;;;;;24.67;15.67;;;4.50;99.90;;;;;;6204502;23;20178;-77
2022/03/04 09:37:37;;;;;;;22.13;14.93;;;4.70;99.90;;;;;;6204978;23;20563;-76
2022/03/04 09:40:06;;;;;;;22.83;15.23;;;4.80;99.90;;;;;;6205455;23;20478;-77
2022/03/04 09:42:34;;;;;;;19.87;13.70;;;5.00;99.90;;;;;;6201139;23;20174;-77
2022/03/04 09:45:07;;;;;;;22.03;15.67;;;5.10;99.90;;;;;;6203015;23;20178;-77
2022/03/04 09:47:34;;;;;;;20.87;14.20;;;5.20;99.90;;;;;;6174493;23;20192;-76
2022/03/04 09:50:02;;;;;;;21.23;15.43;;;5.30;99.90;;;;;;6203377;23;20198;-76
2022/03/04 09:52:30;;;;;;;22.63;14.50;;;5.50;99.90;;;;;;6176213;23;20221;-76
2022/03/04 09:54:58;;;;;;;22.70;15.57;;;5.60;99.90;;;;;;6201335;23;20257;-77
2022/03/04 09:57:25;;;;;;;20.87;14.70;;;5.80;99.90;;;;;;6202708;23;20181;-77
2022/03/04 09:59:52;;;;;;;21.97;15.37;;;5.90;99.90;;;;;;6202575;23;20178;-77
2022/03/04 10:02:21;;;;;;;24.73;14.97;;;6.10;99.90;;;;;;6202032;23;20186;-76
2022/03/04 10:04:58;;;;;;;19.33;14.33;;;6.20;99.90;;;;;;6201449;23;20885;-77
2022/03/04 10:07:25;;;;;;;24.03;14.80;;;6.30;99.90;;;;;;6202910;23;20236;-76
2022/03/04 10:09:52;;;;;;;22.60;15.83;;;6.50;99.90;;;;;;6201487;23;20197;-77
2022/03/04 10:12:20;;;;;;;24.23;13.77;;;6.70;99.90;;;;;;6201856;23;20193;-77
2022/03/04 10:14:58;;;;;;;23.20;15.07;;;6.80;99.90;;;;;;6202734;23;20182;-78
2022/03/04 10:17:26;;;;;;;20.97;13.73;;;6.90;99.90;;;;;;6205043;23;20172;-77
2022/03/04 10:19:54;;;;;;;22.10;15.10;;;7.00;99.90;;;;;;6207287;23;20166;-76
2022/03/04 10:22:21;;;;;;;20.03;13.50;;;7.10;99.90;;;;;;6207240;23;20232;-77
2022/03/04 10:24:48;;;;;;;18.47;13.57;;;7.20;99.90;;;;;;6207024;23;20181;-77
2022/03/04 10:27:17;;;;;;;18.50;14.03;;;7.40;99.90;;;;;;6206132;23;20498;-76
2022/03/04 10:29:46;;;;;;;20.27;15.17;;;7.60;99.90;;;;;;6206391;23;20202;-77
2022/03/04 10:32:19;;;;;;;19.57;13.73;;;7.70;99.90;;;;;;6206827;23;20178;-78
2022/03/04 10:34:53;;;;;;;18.67;13.63;;;7.90;99.90;;;;;;6206257;23;20178;-78
2022/03/04 10:37:22;;;;;;;18.00;13.00;;;8.00;99.90;;;;;;6205665;23;20177;-76
2022/03/04 10:40:06;;;;;;;17.93;13.77;;;8.20;99.90;;;;;;6206603;23;20212;-77
2022/03/04 10:42:42;;;;;;;22.13;13.70;;;8.30;99.90;;;;;;6207103;23;20329;-78
2022/03/04 10:45:11;;;;;;;18.53;13.77;;;8.50;99.90;;;;;;6227257;22;20307;-78
2022/03/04 10:47:49;;;;;;;17.80;12.13;;;8.70;99.90;;;;;;6237311;23;20781;-75
2022/03/04 10:50:19;;;;;;;19.27;12.93;;;8.80;99.90;;;;;;6236706;23;20300;-78
2022/03/04 10:52:51;;;;;;;18.60;13.80;;;8.90;99.90;;;;;;6213550;23;20190;-77
2022/03/04 10:55:49;;;;;;;18.13;12.90;;;9.00;99.90;;;;;;6206191;23;20178;-75
2022/03/04 10:58:18;;;;;;;20.47;13.17;;;9.00;99.90;;;;;;6084525;23;20834;-77
2022/03/04 11:00:47;;;;;;;19.17;13.80;;;9.10;99.90;;;;;;6180322;23;20181;-76
2022/03/04 11:03:17;;;;;;;23.07;14.33;;;9.20;99.90;;;;;;6205686;23;20170;-76
2022/03/04 11:05:45;;;;;;;19.00;12.83;;;9.30;99.90;;;;;;6205085;23;20170;-77
2022/03/04 11:08:13;;;;;;;19.93;13.90;;;9.50;99.90;;;;;;6206405;23;20176;-76
2022/03/04 11:10:40;;;;;;;17.67;14.07;;;9.60;99.90;;;;;;6205949;23;20170;-77
2022/03/04 11:13:10;;;;;;;18.13;14.20;;;9.70;99.90;;;;;;6205947;23;20181;-76
2022/03/04 11:15:38;;;;;;;18.43;13.27;;;9.90;99.90;;;;;;6205338;23;20173;-76
2022/03/04 11:18:07;;;;;;;16.57;13.13;;;10.00;99.90;;;;;;6205716;23;20170;-78
2022/03/04 11:20:34;;;;;;;16.70;13.33;;;10.10;99.90;;;;;;6204176;23;20174;-75
2022/03/04 11:23:04;;;;;;;20.00;13.90;;;10.30;99.90;;;;;;6205752;23;20189;-76
2022/03/04 11:25:41;;;;;;;16.17;12.13;;;10.40;99.90;;;;;;6206368;23;20201;-76
2022/03/04 11:28:14;;;;;;;18.07;13.37;;;10.40;99.90;;;;;;6206331;23;20175;-76
2022/03/04 11:30:44;;;;;;;18.73;13.80;;;10.30;99.90;;;;;;6206489;23;20491;-78
2022/03/04 11:33:21;;;;;;;18.87;13.60;;;10.30;99.90;;;;;;6205673;23;20174;-76
2022/03/04 11:36:04;;;;;;;18.20;13.43;;;10.40;99.90;;;;;;6206402;23;20166;-79
2022/03/04 11:38:59;;;;;;;19.73;14.23;;;10.40;99.90;;;;;;6205864;23;20430;-75
2022/03/04 11:41:37;;;;;;;19.53;13.50;;;10.50;99.90;;;;;;6205798;23;20177;-76
2022/03/04 11:44:13;;;;;;;18.37;12.93;;;10.60;99.90;;;;;;6206109;23;20205;-76
2022/03/04 11:46:46;;;;;;;18.27;12.80;;;10.60;99.90;;;;;;6205462;23;20236;-76
2022/03/04 11:49:29;;;;;;;19.30;13.20;;;10.80;99.90;;;;;;6205019;23;20194;-74
2022/03/04 11:52:24;;;;;;;17.33;13.13;;;11.00;99.90;;;;;;6205258;23;20198;-76
2022/03/04 11:55:12;;;;;;;19.50;14.23;;;11.00;99.90;;;;;;6204659;23;20194;-74
2022/03/04 11:57:42;;;;;;;19.23;13.40;;;11.10;99.90;;;;;;6205886;23;20253;-75
2022/03/04 12:00:27;;;;;;;18.50;13.73;;;11.10;99.90;;;;;;6206333;23;20178;-76
2022/03/04 12:02:55;;;;;;;17.50;13.27;;;11.20;99.90;;;;;;6201915;23;20173;-76
2022/03/04 12:05:29;;;;;;;17.30;13.53;;;11.30;99.90;;;;;;6202738;23;20455;-75
2022/03/04 12:08:12;;;;;;;17.30;13.77;;;11.40;99.90;;;;;;6203485;23;20284;-75
2022/03/04 12:10:52;;;;;;;17.47;13.40;;;11.50;99.90;;;;;;6202200;23;20201;-72
2022/03/04 12:13:24;;;;;;;17.40;12.87;;;11.60;99.90;;;;;;6202089;23;20444;-76
2022/03/04 12:15:53;;;;;;;17.97;13.53;;;11.70;99.90;;;;;;6200255;23;20193;-76
2022/03/04 12:18:30;;;;;;;17.20;13.70;;;11.60;99.90;;;;;;6203781;23;20294;-76
2022/03/04 12:21:01;;;;;;;16.57;12.03;;;11.70;99.90;;;;;;6203149;23;20174;-76
2022/03/04 12:23:36;;;;;;;19.53;14.17;;;11.70;99.90;;;;;;6202076;23;20599;-76
2022/03/04 12:26:11;;;;;;;19.53;14.23;;;11.80;99.90;;;;;;6202610;23;20248;-76
2022/03/04 12:28:45;;;;;;;17.33;13.00;;;11.80;99.90;;;;;;6202890;23;20185;-74
2022/03/04 12:31:16;;;;;;;18.47;14.37;;;11.80;99.90;;;;;;6202801;23;20185;-76
2022/03/04 12:33:45;;;;;;;16.30;12.50;;;11.60;99.90;;;;;;6202362;23;20514;-75
2022/03/04 12:36:14;;;;;;;17.67;13.60;;;11.60;99.90;;;;;;6202025;23;20186;-75
2022/03/04 12:38:43;;;;;;;17.87;12.23;;;11.70;99.90;;;;;;6202474;23;20182;-76
2022/03/04 12:41:15;;;;;;;16.07;11.87;;;11.70;99.90;;;;;;6201559;23;20182;-75
2022/03/04 12:43:46;;;;;;;15.23;12.77;;;11.80;99.90;;;;;;6201339;23;20514;-74